Time;durP1;ratioP1;P1;durP2;ratioP2;P2;SDS_P1;SDS_P2;PMS_P1;PMS_P2;Temp;Humidity;BMP_temperature;BMP_pressure;BME280_temperature;BME280_humidity;BME280_pressure;Samples;Min_cycle;Max_cycle;Signal;HPM_P1;HPM_P2
2023/06/29 00:02:11;;;;;;;1999.90;999.90;;;;;;;15.37;100.00;95457.03;5064686;28;20247;-60
2023/06/29 00:04:36;;;;;;;1999.90;999.90;;;;;;;15.37;100.00;95457.03;5064242;28;20198;-61
2023/06/29 00:07:02;;;;;;;1999.90;999.90;;;;;;;15.33;100.00;95450.03;5064780;28;20193;-61
2023/06/29 00:09:28;;;;;;;1999.90;999.90;;;;;;;15.34;100.00;95451.63;5064731;28;20256;-61
2023/06/29 00:11:54;;;;;;;1999.90;999.90;;;;;;;15.32;100.00;95449.28;5064296;28;20198;-61
2023/06/29 00:14:20;;;;;;;1999.90;999.90;;;;;;;15.26;100.00;95462.00;5065099;28;20264;-61
2023/06/29 00:16:45;;;;;;;1999.90;999.90;;;;;;;15.25;100.00;95454.19;5065345;28;20289;-62
2023/06/29 00:19:14;;;;;;;1999.90;999.90;;;;;;;15.20;100.00;95447.25;5064960;28;20228;-61
2023/06/29 00:21:39;;;;;;;1999.90;999.90;;;;;;;15.20;100.00;95446.47;5064379;28;20288;-60
2023/06/29 00:24:05;;;;;;;1999.90;999.90;;;;;;;15.13;100.00;95444.66;5065181;28;20209;-61
2023/06/29 00:26:31;;;;;;;1999.90;999.90;;;;;;;15.05;100.00;95446.03;5064716;28;20229;-60
2023/06/29 00:28:56;;;;;;;1999.90;999.90;;;;;;;15.00;100.00;95445.78;5064632;28;20248;-61
2023/06/29 00:31:24;;;;;;;1999.90;999.90;;;;;;;14.92;100.00;95439.69;5064458;28;20205;-61
2023/06/29 00:33:49;;;;;;;1999.90;999.90;;;;;;;14.89;100.00;95437.78;5064398;28;20202;-61
2023/06/29 00:36:14;;;;;;;1999.90;999.90;;;;;;;14.85;100.00;95436.31;5064182;28;20205;-60
2023/06/29 00:38:40;;;;;;;1999.90;999.90;;;;;;;14.81;100.00;95435.63;5064214;28;20198;-60
2023/06/29 00:41:05;;;;;;;1999.90;999.90;;;;;;;14.77;100.00;95430.22;5064508;28;20316;-61
2023/06/29 00:43:30;;;;;;;1999.90;999.90;;;;;;;14.73;100.00;95426.78;5063926;28;20268;-61
2023/06/29 00:45:56;;;;;;;1999.90;999.90;;;;;;;14.68;100.00;95427.28;5064518;28;20166;-61
2023/06/29 00:48:22;;;;;;;1999.90;999.90;;;;;;;14.61;100.00;95427.44;5064257;28;20193;-60
2023/06/29 00:50:47;;;;;;;1999.90;999.90;;;;;;;14.59;100.00;95420.84;5064353;28;20197;-61
2023/06/29 00:53:13;;;;;;;1999.90;999.90;;;;;;;14.62;100.00;95422.75;5063798;28;20235;-61
2023/06/29 00:55:39;;;;;;;1999.90;999.90;;;;;;;14.61;100.00;95418.44;5063907;28;20194;-61
2023/06/29 00:58:04;;;;;;;1999.90;999.90;;;;;;;14.61;100.00;95416.44;5063834;28;20193;-61
2023/06/29 01:00:29;;;;;;;1999.90;999.90;;;;;;;14.60;100.00;95420.41;5063664;28;20190;-61
2023/06/29 01:02:55;;;;;;;1999.90;999.90;;;;;;;14.61;100.00;95421.19;5063810;28;20219;-61
2023/06/29 01:05:20;;;;;;;1999.90;999.90;;;;;;;14.57;100.00;95415.75;5063897;28;20194;-61
2023/06/29 01:07:56;;;;;;;1999.90;999.90;;;;;;;14.50;100.00;95415.16;5063871;28;20196;-61
2023/06/29 01:10:25;;;;;;;1999.90;999.90;;;;;;;14.45;100.00;95418.41;5064286;28;20185;-61
2023/06/29 01:12:53;;;;;;;1999.90;999.90;;;;;;;14.42;100.00;95414.53;5063591;28;20240;-61
2023/06/29 01:15:20;;;;;;;1999.90;999.90;;;;;;;14.40;100.00;95411.47;5063203;28;20232;-61
2023/06/29 01:17:48;;;;;;;1999.90;999.90;;;;;;;14.40;100.00;95405.97;5064061;28;20201;-61
2023/06/29 01:20:14;;;;;;;1999.90;999.90;;;;;;;14.37;100.00;95404.06;5063938;28;20190;-61
2023/06/29 01:22:53;;;;;;;1999.90;999.90;;;;;;;14.34;100.00;95399.44;5063751;28;20201;-60
2023/06/29 01:25:19;;;;;;;1999.90;999.90;;;;;;;14.34;100.00;95380.19;5063696;28;20207;-61
2023/06/29 01:27:46;;;;;;;1999.90;999.90;;;;;;;14.25;100.00;95376.50;5063374;28;20229;-61
2023/06/29 01:30:12;;;;;;;1999.90;999.90;;;;;;;14.20;100.00;95372.25;5063679;28;20275;-61
2023/06/29 01:32:37;;;;;;;1999.90;999.90;;;;;;;14.13;100.00;95377.88;5063529;28;20189;-61
2023/06/29 01:35:04;;;;;;;1999.90;999.90;;;;;;;14.10;100.00;95372.50;5063624;28;20228;-61
2023/06/29 01:37:37;;;;;;;1999.90;999.90;;;;;;;14.07;100.00;95359.59;5063861;28;20196;-63
2023/06/29 01:40:08;;;;;;;1999.90;999.90;;;;;;;14.05;100.00;95357.28;5063725;28;20194;-61
2023/06/29 01:42:35;;;;;;;1999.90;999.90;;;;;;;13.99;100.00;95350.72;5063493;28;20212;-61
2023/06/29 01:45:03;;;;;;;1999.90;999.90;;;;;;;13.88;100.00;95352.94;5063831;28;20208;-61
2023/06/29 01:47:30;;;;;;;1999.90;999.90;;;;;;;13.90;100.00;95347.03;5063758;28;20223;-61
2023/06/29 01:49:55;;;;;;;1999.90;999.90;;;;;;;13.91;100.00;95337.63;5063458;28;20193;-61
2023/06/29 01:52:22;;;;;;;1999.90;999.90;;;;;;;13.89;100.00;95332.53;5063275;28;20308;-60
2023/06/29 01:54:47;;;;;;;1999.90;999.90;;;;;;;13.92;100.00;95326.22;5063356;28;20264;-61
2023/06/29 01:57:12;;;;;;;1999.90;999.90;;;;;;;13.92;100.00;95325.44;5063300;28;20190;-61
2023/06/29 01:59:39;;;;;;;1999.90;999.90;;;;;;;13.92;100.00;95326.22;5063391;28;20194;-61
2023/06/29 02:02:05;;;;;;;1999.90;999.90;;;;;;;13.88;100.00;95320.00;5063043;28;20213;-62
2023/06/29 02:04:31;;;;;;;1999.90;999.90;;;;;;;13.87;100.00;95328.69;5063712;28;20281;-62
2023/06/29 02:06:56;;;;;;;1999.90;999.90;;;;;;;13.83;100.00;95322.47;5063151;28;20158;-61
2023/06/29 02:09:21;;;;;;;1999.90;999.90;;;;;;;13.79;100.00;95319.81;5063971;28;20190;-61
2023/06/29 02:11:47;;;;;;;1999.90;999.90;;;;;;;13.75;100.00;95313.63;5063242;28;20288;-61
2023/06/29 02:14:12;;;;;;;1999.90;999.90;;;;;;;13.73;100.00;95321.50;5063106;28;20228;-61
2023/06/29 02:16:38;;;;;;;1999.90;999.90;;;;;;;13.71;100.00;95304.72;5063247;28;20281;-61
2023/06/29 02:19:04;;;;;;;1999.90;999.90;;;;;;;13.71;100.00;95310.19;5063186;28;20200;-61
2023/06/29 02:21:29;;;;;;;1999.90;999.90;;;;;;;13.73;100.00;95302.28;5062804;28;20248;-61
2023/06/29 02:23:54;;;;;;;1999.90;999.90;;;;;;;13.73;100.00;95307.78;5062807;28;20221;-60
2023/06/29 02:26:20;;;;;;;1999.90;999.90;;;;;;;13.69;100.00;95309.84;5063876;28;20289;-61
2023/06/29 02:28:46;;;;;;;1999.90;999.90;;;;;;;13.70;100.00;95311.41;5066388;28;20193;-62
2023/06/29 02:31:11;;;;;;;1999.90;999.90;;;;;;;13.63;100.00;95303.31;5066629;28;20214;-60
2023/06/29 02:33:37;;;;;;;1999.90;999.90;;;;;;;13.61;100.00;95304.91;5066638;28;20204;-60
2023/06/29 02:36:02;;;;;;;1999.90;999.90;;;;;;;13.54;100.00;95303.09;5066190;28;20197;-61
2023/06/29 02:38:28;;;;;;;1999.90;999.90;;;;;;;13.53;100.00;95303.53;5066514;28;20165;-60
2023/06/29 02:40:53;;;;;;;1999.90;999.90;;;;;;;13.50;100.00;95294.19;5066655;28;20189;-60
2023/06/29 02:43:18;;;;;;;1999.90;999.90;;;;;;;13.49;100.00;95278.91;5066269;28;20233;-61
2023/06/29 02:45:44;;;;;;;1999.90;999.90;;;;;;;13.46;100.00;95270.75;5066230;28;20202;-61
2023/06/29 02:48:09;;;;;;;1999.90;999.90;;;;;;;13.35;100.00;95273.72;5066221;28;20201;-61
2023/06/29 02:50:35;;;;;;;1999.90;999.90;;;;;;;13.29;100.00;95267.19;5066213;28;20217;-61
2023/06/29 02:53:00;;;;;;;1999.90;999.90;;;;;;;13.29;100.00;95259.75;5066784;28;20198;-60
2023/06/29 02:55:26;;;;;;;1999.90;999.90;;;;;;;13.27;100.00;95264.84;5066489;28;20213;-61
2023/06/29 02:57:51;;;;;;;1999.90;999.90;;;;;;;13.19;100.00;95263.47;5066059;28;20229;-61
2023/06/29 03:00:17;;;;;;;1999.90;999.90;;;;;;;13.16;100.00;95253.34;5065867;28;20193;-60
2023/06/29 03:02:42;;;;;;;1999.90;999.90;;;;;;;13.16;100.00;95261.56;5065827;28;20255;-60
2023/06/29 03:05:08;;;;;;;1999.90;999.90;;;;;;;13.23;100.00;95252.44;5065903;28;20201;-61
2023/06/29 03:07:34;;;;;;;1999.90;999.90;;;;;;;13.24;100.00;95248.50;5066294;28;20197;-61
2023/06/29 03:09:59;;;;;;;1999.90;999.90;;;;;;;13.22;100.00;95257.13;5066343;28;20166;-61
2023/06/29 03:12:26;;;;;;;1999.90;999.90;;;;;;;13.17;100.00;95252.16;5066144;28;20208;-61
2023/06/29 03:14:51;;;;;;;1999.90;999.90;;;;;;;13.19;100.00;95251.75;5066178;28;20244;-61
2023/06/29 03:17:16;;;;;;;1999.90;999.90;;;;;;;13.19;100.00;95240.78;5065955;28;20193;-61
2023/06/29 03:19:42;;;;;;;1999.90;999.90;;;;;;;13.21;100.00;95244.63;5065576;28;20263;-61
2023/06/29 03:22:07;;;;;;;1999.90;999.90;;;;;;;13.25;100.00;95247.28;5065658;28;20220;-61
2023/06/29 03:24:32;;;;;;;1999.90;999.90;;;;;;;13.35;100.00;95238.06;5065615;28;20225;-60
2023/06/29 03:26:58;;;;;;;1999.90;999.90;;;;;;;13.43;100.00;95250.44;5065588;28;20210;-61
2023/06/29 03:29:24;;;;;;;1999.90;999.90;;;;;;;13.41;100.00;95244.63;5065347;28;20231;-61
2023/06/29 03:31:49;;;;;;;1999.90;999.90;;;;;;;13.38;100.00;95248.19;5065544;28;20202;-61
2023/06/29 03:34:14;;;;;;;1999.90;999.90;;;;;;;13.38;100.00;95243.47;5065245;28;20193;-60
2023/06/29 03:36:40;;;;;;;1999.90;999.90;;;;;;;13.43;100.00;95255.91;5065286;28;20257;-61
2023/06/29 03:39:05;;;;;;;1999.90;999.90;;;;;;;13.58;100.00;95257.16;5064456;28;20190;-61
2023/06/29 03:41:30;;;;;;;1999.90;999.90;;;;;;;13.81;100.00;95259.78;5065446;28;20193;-61
2023/06/29 03:43:56;;;;;;;1999.90;999.90;;;;;;;14.13;100.00;95259.78;5065340;28;20216;-61
2023/06/29 03:46:22;;;;;;;1999.90;999.90;;;;;;;14.46;100.00;95269.59;5065420;28;20202;-61
2023/06/29 03:48:47;;;;;;;1999.90;999.90;;;;;;;14.72;100.00;95287.78;5065262;28;20272;-62
2023/06/29 03:51:12;;;;;;;1999.90;999.90;;;;;;;14.94;100.00;95302.50;5065400;28;20197;-61
2023/06/29 03:53:38;;;;;;;1999.90;999.90;;;;;;;15.25;100.00;95322.91;5065140;28;20204;-61
2023/06/29 03:56:03;;;;;;;1999.90;999.90;;;;;;;15.60;100.00;95324.69;5064827;28;20203;-61
2023/06/29 03:58:28;;;;;;;1999.90;999.90;;;;;;;15.87;100.00;95344.34;5064802;28;20194;-61
2023/06/29 04:00:54;;;;;;;1999.90;999.90;;;;;;;16.00;100.00;95356.16;5064920;28;20268;-61
2023/06/29 04:03:20;;;;;;;1999.90;999.90;;;;;;;16.15;100.00;95362.81;5065022;28;20190;-61
2023/06/29 04:05:45;;;;;;;1999.90;999.90;;;;;;;16.38;100.00;95365.22;5065156;28;20276;-62
2023/06/29 04:08:11;;;;;;;1999.90;999.90;;;;;;;16.47;100.00;95372.09;5064615;28;20190;-61
2023/06/29 04:10:36;;;;;;;1999.90;999.90;;;;;;;16.48;100.00;95373.63;5064572;28;20324;-61
2023/06/29 04:13:02;;;;;;;1999.90;999.90;;;;;;;16.46;100.00;95365.03;5064813;28;20203;-61
2023/06/29 04:15:27;;;;;;;1999.90;999.90;;;;;;;16.61;100.00;95364.13;5065090;28;20253;-61
2023/06/29 04:17:53;;;;;;;1999.90;999.90;;;;;;;16.81;100.00;95369.41;5064649;28;20212;-61
2023/06/29 04:20:18;;;;;;;1999.90;999.90;;;;;;;16.99;100.00;95372.34;5065077;28;20216;-61
2023/06/29 04:22:44;;;;;;;1999.90;999.90;;;;;;;17.18;100.00;95377.63;5064763;28;20219;-61
2023/06/29 04:25:09;;;;;;;1999.90;999.90;;;;;;;17.30;100.00;95374.03;5064395;28;20268;-61
2023/06/29 04:27:35;;;;;;;1999.90;999.90;;;;;;;17.67;100.00;95377.91;5064356;28;20228;-61
2023/06/29 04:30:03;;;;;;;1999.90;999.90;;;;;;;17.92;100.00;95380.56;5064279;28;20208;-61
2023/06/29 04:32:28;;;;;;;1999.90;999.90;;;;;;;18.06;100.00;95385.56;5064754;28;20215;-62
2023/06/29 04:34:55;;;;;;;1999.90;999.90;;;;;;;18.24;100.00;95374.59;5047729;28;20308;-61
2023/06/29 04:37:20;;;;;;;1999.90;999.90;;;;;;;18.64;100.00;95381.72;5064406;28;20213;-61
2023/06/29 04:39:45;;;;;;;1999.90;999.90;;;;;;;18.79;100.00;95382.69;5064272;28;20209;-62
2023/06/29 04:42:13;;;;;;;1999.90;999.90;;;;;;;18.92;100.00;95377.84;5064142;28;20232;-61
2023/06/29 04:44:41;;;;;;;1999.90;999.90;;;;;;;19.21;100.00;95377.44;5064495;28;20201;-61
2023/06/29 04:47:07;;;;;;;1999.90;999.90;;;;;;;19.35;100.00;95376.88;5064416;28;20269;-61
2023/06/29 04:49:36;;;;;;;1999.90;999.90;;;;;;;19.43;100.00;95375.31;5064096;28;20208;-60
2023/06/29 04:52:03;;;;;;;1999.90;999.90;;;;;;;19.57;100.00;95374.72;5063788;28;20202;-61
2023/06/29 04:54:28;;;;;;;1999.90;999.90;;;;;;;19.69;100.00;95365.47;5063917;28;20202;-61
2023/06/29 04:56:56;;;;;;;1999.90;999.90;;;;;;;20.17;100.00;95366.53;5063734;28;20268;-61
2023/06/29 04:59:23;;;;;;;1999.90;999.90;;;;;;;20.19;100.00;95364.81;5064229;28;20204;-61
2023/06/29 05:01:49;;;;;;;1999.90;999.90;;;;;;;20.73;100.00;95364.66;5064119;28;20285;-62
2023/06/29 05:04:14;;;;;;;1999.90;999.90;;;;;;;20.95;100.00;95362.41;5064011;28;20209;-60
2023/06/29 05:06:39;;;;;;;1999.90;999.90;;;;;;;21.23;100.00;95366.53;5064211;28;20202;-60
2023/06/29 05:09:05;;;;;;;1999.90;999.90;;;;;;;21.25;100.00;95372.41;5063515;28;20201;-61
2023/06/29 05:11:30;;;;;;;1999.90;999.90;;;;;;;21.44;100.00;95370.25;5064041;28;20174;-61
2023/06/29 05:13:55;;;;;;;1999.90;999.90;;;;;;;21.66;100.00;95368.72;5063263;28;20201;-60
2023/06/29 05:16:21;;;;;;;1999.90;999.90;;;;;;;22.05;100.00;95370.25;5063874;28;20206;-60
2023/06/29 05:18:46;;;;;;;1999.90;999.90;;;;;;;22.18;100.00;95365.16;5063740;28;20201;-61
2023/06/29 05:21:13;;;;;;;1999.90;999.90;;;;;;;22.50;100.00;95365.50;5063600;28;20236;-60
2023/06/29 05:23:39;;;;;;;1999.90;999.90;;;;;;;22.91;100.00;95367.16;5063588;28;20201;-60
2023/06/29 05:26:04;;;;;;;1999.90;999.90;;;;;;;23.28;100.00;95369.00;5063581;28;20268;-60
2023/06/29 05:28:31;;;;;;;1999.90;999.90;;;;;;;23.69;100.00;95364.19;5063514;28;20204;-60
2023/06/29 05:30:56;;;;;;;1999.90;999.90;;;;;;;23.92;100.00;95363.16;5063432;28;20276;-61
2023/06/29 05:33:22;;;;;;;1999.90;999.90;;;;;;;24.17;100.00;95376.41;5063449;28;20202;-61
2023/06/29 05:35:47;;;;;;;1999.90;999.90;;;;;;;24.50;100.00;95373.94;5063473;28;20208;-61
2023/06/29 05:38:13;;;;;;;1999.90;999.90;;;;;;;25.34;100.00;95368.53;5063312;28;20197;-60
2023/06/29 05:40:38;;;;;;;1999.90;999.90;;;;;;;25.54;100.00;95371.19;5063212;28;20206;-60
2023/06/29 05:43:03;;;;;;;1999.90;999.90;;;;;;;25.64;100.00;95369.72;5063244;28;20197;-60
2023/06/29 05:45:29;;;;;;;1999.90;999.90;;;;;;;25.84;100.00;95371.56;5063492;28;20224;-61
2023/06/29 05:47:55;;;;;;;1999.90;999.90;;;;;;;25.92;99.25;95369.81;5063528;28;20229;-60
2023/06/29 05:50:21;;;;;;;1999.90;999.90;;;;;;;26.24;98.58;95366.38;5063232;28;20189;-61
2023/06/29 05:52:46;;;;;;;1999.90;999.90;;;;;;;25.95;100.00;95369.59;5063418;28;20285;-61
2023/06/29 05:55:12;;;;;;;1999.90;999.90;;;;;;;26.44;97.87;95352.13;5063153;28;20194;-61
2023/06/29 05:57:38;;;;;;;1999.90;999.90;;;;;;;26.76;93.23;95361.84;5063174;28;20190;-62
2023/06/29 06:00:09;;;;;;;1999.90;999.90;;;;;;;26.57;94.80;95360.81;5063026;28;20213;-61
2023/06/29 06:02:36;;;;;;;1999.90;999.90;;;;;;;26.84;88.02;95364.94;5066347;28;20232;-61
2023/06/29 06:05:02;;;;;;;1999.90;999.90;;;;;;;27.50;88.38;95362.78;5067126;28;20181;-61
2023/06/29 06:07:29;;;;;;;1999.90;999.90;;;;;;;27.29;83.42;95367.19;5067059;28;20205;-62
2023/06/29 06:09:55;;;;;;;1999.90;999.90;;;;;;;27.68;82.28;95367.09;5066814;28;20264;-61
2023/06/29 06:12:21;;;;;;;1999.90;999.90;;;;;;;27.78;80.34;95363.47;5067415;28;20202;-61
2023/06/29 06:14:47;;;;;;;1999.90;999.90;;;;;;;28.22;76.76;95366.09;5066760;28;20193;-61
2023/06/29 06:17:12;;;;;;;1999.90;999.90;;;;;;;28.18;76.66;95365.59;5067202;28;20194;-62
2023/06/29 06:19:37;;;;;;;1999.90;999.90;;;;;;;28.69;72.70;95368.91;5067015;28;20219;-61
2023/06/29 06:22:03;;;;;;;1999.90;999.90;;;;;;;28.64;75.08;95362.03;5066497;28;20237;-60
2023/06/29 06:24:28;;;;;;;1999.90;999.90;;;;;;;29.42;70.74;95364.94;5066508;28;20204;-62
2023/06/29 06:26:53;;;;;;;1999.90;999.90;;;;;;;29.35;69.01;95357.81;5066663;28;20209;-61
2023/06/29 06:29:19;;;;;;;1999.90;999.90;;;;;;;29.55;66.90;95360.19;5066510;28;20200;-61
2023/06/29 06:31:44;;;;;;;1999.90;999.90;;;;;;;29.01;66.39;95362.25;5066529;28;20228;-61
2023/06/29 06:34:10;;;;;;;1999.90;999.90;;;;;;;29.22;69.25;95354.13;5066591;28;20216;-62
2023/06/29 06:36:35;;;;;;;1999.90;999.90;;;;;;;29.49;62.72;95355.91;5066663;28;20239;-62
2023/06/29 06:39:00;;;;;;;1999.90;999.90;;;;;;;28.93;60.47;95355.66;5066479;28;20197;-61
2023/06/29 06:41:26;;;;;;;1999.90;999.90;;;;;;;29.46;59.81;95359.78;5066290;28;20264;-62
2023/06/29 06:43:51;;;;;;;1999.90;999.90;;;;;;;29.96;59.12;95359.97;5066735;28;20209;-62
2023/06/29 06:46:17;;;;;;;1999.90;999.90;;;;;;;29.91;58.12;95352.34;5066545;28;20193;-62
2023/06/29 06:48:42;;;;;;;1999.90;999.90;;;;;;;29.01;63.14;95350.19;5066694;28;20221;-62
2023/06/29 06:51:07;;;;;;;1999.90;999.90;;;;;;;29.99;61.29;95356.09;5066214;28;20221;-62
2023/06/29 06:53:33;;;;;;;1999.90;999.90;;;;;;;29.64;59.37;95356.28;5066302;28;20201;-62
2023/06/29 06:55:58;;;;;;;1999.90;999.90;;;;;;;29.99;58.02;95353.28;5066001;28;20233;-62
2023/06/29 06:58:23;;;;;;;1999.90;999.90;;;;;;;30.54;55.93;95355.34;5066056;28;20209;-62
2023/06/29 07:00:49;;;;;;;1999.90;999.90;;;;;;;29.85;57.70;95351.66;5065943;28;20243;-62
2023/06/29 07:03:14;;;;;;;1999.90;999.90;;;;;;;30.31;57.19;95343.66;5065849;28;20197;-62
2023/06/29 07:05:39;;;;;;;1999.90;999.90;;;;;;;30.47;52.50;95345.47;5065865;28;20193;-62
2023/06/29 07:08:05;;;;;;;1999.90;999.90;;;;;;;30.46;52.11;95346.00;5065747;28;20194;-62
2023/06/29 07:10:30;;;;;;;1999.90;999.90;;;;;;;31.04;50.57;95349.72;5065996;28;20197;-61
2023/06/29 07:12:55;;;;;;;1999.90;999.90;;;;;;;31.06;49.12;95347.09;5065096;28;20194;-62
2023/06/29 07:15:21;;;;;;;1999.90;999.90;;;;;;;30.05;54.37;95351.16;5066287;28;20239;-61
2023/06/29 07:17:47;;;;;;;1999.90;999.90;;;;;;;29.24;55.03;95357.19;5066171;28;20198;-62
2023/06/29 07:20:12;;;;;;;1999.90;999.90;;;;;;;29.02;56.27;95340.53;5066068;28;20201;-62
2023/06/29 07:22:38;;;;;;;1999.90;999.90;;;;;;;29.21;53.95;95338.53;5065795;28;20214;-61
2023/06/29 07:25:04;;;;;;;1999.90;999.90;;;;;;;28.55;54.79;95353.88;5065824;28;20197;-61
2023/06/29 07:27:30;;;;;;;1999.90;999.90;;;;;;;29.65;55.39;95335.28;5065586;28;20280;-61
2023/06/29 07:29:56;;;;;;;1999.90;999.90;;;;;;;31.22;47.11;95339.66;5065487;28;20201;-62
2023/06/29 07:32:21;;;;;;;1999.90;999.90;;;;;;;30.82;48.85;95344.44;5065453;28;20202;-61
2023/06/29 07:34:47;;;;;;;1999.90;999.90;;;;;;;29.49;51.57;95334.13;5065472;28;20193;-62
2023/06/29 07:37:12;;;;;;;1999.90;999.90;;;;;;;29.35;49.98;95343.00;5064995;28;20194;-62
2023/06/29 07:39:38;;;;;;;1999.90;999.90;;;;;;;29.04;50.34;95337.94;5065450;28;20197;-62
2023/06/29 07:42:03;;;;;;;1999.90;999.90;;;;;;;30.31;47.39;95340.06;5065246;28;20213;-64
2023/06/29 07:44:29;;;;;;;1999.90;999.90;;;;;;;29.89;48.20;95332.41;5065842;28;20196;-62
2023/06/29 07:46:54;;;;;;;1999.90;999.90;;;;;;;30.79;45.02;95340.63;5065315;28;20222;-62
2023/06/29 07:49:21;;;;;;;1999.90;999.90;;;;;;;31.82;43.39;95332.88;5065521;28;20261;-62
2023/06/29 07:51:47;;;;;;;1999.90;999.90;;;;;;;32.30;40.75;95326.69;5064953;28;20194;-62
2023/06/29 07:54:12;;;;;;;1999.90;999.90;;;;;;;31.75;41.58;95333.50;5064944;28;20230;-62
2023/06/29 07:56:37;;;;;;;1999.90;999.90;;;;;;;31.41;42.83;95321.34;5065177;28;20213;-62
2023/06/29 07:59:03;;;;;;;1999.90;999.90;;;;;;;32.64;40.23;95321.84;5064814;28;20200;-63
2023/06/29 08:01:28;;;;;;;1999.90;999.90;;;;;;;32.10;39.23;95327.41;5064787;28;20209;-62
2023/06/29 08:03:54;;;;;;;1999.90;999.90;;;;;;;32.84;39.97;95329.59;5064875;28;20244;-63
2023/06/29 08:06:19;;;;;;;1999.90;999.90;;;;;;;33.03;37.70;95330.16;5064810;28;20193;-62
2023/06/29 08:08:44;;;;;;;1999.90;999.90;;;;;;;32.07;38.26;95331.34;5064675;28;20202;-62
2023/06/29 08:11:14;;;;;;;1999.90;999.90;;;;;;;31.09;38.95;95334.72;5064743;28;20204;-62
2023/06/29 08:13:40;;;;;;;1999.90;999.90;;;;;;;31.45;39.07;95333.06;5064224;28;20194;-64
2023/06/29 08:16:05;;;;;;;1999.90;999.90;;;;;;;31.71;38.79;95332.34;5065008;28;20169;-61
2023/06/29 08:18:31;;;;;;;1999.90;999.90;;;;;;;31.46;36.33;95340.25;5064878;28;20229;-62
2023/06/29 08:20:56;;;;;;;1999.90;999.90;;;;;;;31.87;35.90;95340.50;5064824;28;20224;-62
2023/06/29 08:23:22;;;;;;;1999.90;999.90;;;;;;;31.11;36.50;95326.50;5064236;28;20247;-62
2023/06/29 08:25:48;;;;;;;1999.90;999.90;;;;;;;31.64;33.46;95330.16;5063984;28;20202;-62
2023/06/29 08:28:13;;;;;;;1999.90;999.90;;;;;;;31.71;32.09;95333.06;5064205;28;20201;-63
2023/06/29 08:30:39;;;;;;;1999.90;999.90;;;;;;;31.74;32.49;95326.34;5065102;28;20193;-64
2023/06/29 08:33:04;;;;;;;1999.90;999.90;;;;;;;30.43;35.29;95324.50;5064135;28;20193;-63
2023/06/29 08:35:30;;;;;;;1999.90;999.90;;;;;;;30.62;34.33;95313.94;5064314;28;20217;-62
2023/06/29 08:37:55;;;;;;;1999.90;999.90;;;;;;;31.64;32.55;95308.31;5064261;28;20232;-62
2023/06/29 08:40:22;;;;;;;1999.90;999.90;;;;;;;32.63;31.24;95306.16;5064213;28;20197;-62
2023/06/29 08:42:48;;;;;;;1999.90;999.90;;;;;;;31.57;33.31;95305.38;5064203;28;20220;-63
2023/06/29 08:45:13;;;;;;;1999.90;999.90;;;;;;;32.30;34.04;95295.59;5064012;28;20272;-62
2023/06/29 08:47:40;;;;;;;1999.90;999.90;;;;;;;33.04;32.59;95300.53;5064359;28;20205;-63
2023/06/29 08:50:09;;;;;;;1999.90;999.90;;;;;;;32.22;33.27;95297.59;5064531;28;20189;-63
2023/06/29 08:52:35;;;;;;;1999.90;999.90;;;;;;;32.75;32.18;95293.28;5064282;28;20193;-62
2023/06/29 08:55:02;;;;;;;1999.90;999.90;;;;;;;31.91;33.30;95306.25;5064145;28;20202;-62
2023/06/29 08:57:29;;;;;;;1999.90;999.90;;;;;;;30.93;36.20;95299.09;5064193;28;20190;-62
2023/06/29 08:59:54;;;;;;;1999.90;999.90;;;;;;;31.45;36.00;95293.53;5063965;28;20189;-63
2023/06/29 09:02:20;;;;;;;1999.90;999.90;;;;;;;31.93;34.55;95290.25;5063743;28;20212;-62
2023/06/29 09:04:46;;;;;;;1999.90;999.90;;;;;;;32.09;33.84;95291.97;5064111;28;20189;-64
2023/06/29 09:07:14;;;;;;;1999.90;999.90;;;;;;;32.28;34.54;95288.97;5063811;28;20197;-62
2023/06/29 09:09:40;;;;;;;1999.90;999.90;;;;;;;32.14;32.89;95288.25;5063801;28;20208;-63
2023/06/29 09:12:05;;;;;;;1999.90;999.90;;;;;;;31.81;33.64;95296.69;5063654;28;20190;-63
2023/06/29 09:14:35;;;;;;;1999.90;999.90;;;;;;;30.97;34.73;95279.78;5063996;28;20174;-62
2023/06/29 09:17:01;;;;;;;1999.90;999.90;;;;;;;31.92;33.69;95285.91;5064118;28;20200;-62
2023/06/29 09:19:28;;;;;;;1999.90;999.90;;;;;;;31.35;33.34;95286.06;5064017;28;20200;-62
2023/06/29 09:21:54;;;;;;;1999.90;999.90;;;;;;;31.72;34.07;95277.34;5063479;28;20209;-64
2023/06/29 09:24:20;;;;;;;1999.90;999.90;;;;;;;32.40;33.97;95273.28;5063671;28;20190;-62
2023/06/29 09:26:53;;;;;;;1999.90;999.90;;;;;;;33.42;33.43;95264.78;5063466;28;20208;-62
2023/06/29 09:29:18;;;;;;;1999.90;999.90;;;;;;;33.55;31.68;95269.56;5064163;28;20243;-62
2023/06/29 09:31:59;;;;;;;1999.90;999.90;;;;;;;32.58;34.17;95266.69;5063969;28;20198;-62
2023/06/29 09:34:26;;;;;;;1999.90;999.90;;;;;;;31.30;34.36;95265.09;5063598;28;20197;-62
2023/06/29 09:36:52;;;;;;;1999.90;999.90;;;;;;;31.47;34.43;95267.56;5065880;28;20260;-62
2023/06/29 09:39:17;;;;;;;1999.90;999.90;;;;;;;31.17;34.00;95265.03;5067687;28;20174;-63
2023/06/29 09:41:56;;;;;;;1999.90;999.90;;;;;;;32.16;33.53;95259.44;5067652;28;20213;-62
2023/06/29 09:44:25;;;;;;;1999.90;999.90;;;;;;;32.54;31.99;95269.09;5067539;28;20200;-63
2023/06/29 09:46:53;;;;;;;1999.90;999.90;;;;;;;33.19;30.82;95249.69;5067361;28;20319;-62
2023/06/29 09:49:19;;;;;;;1999.90;999.90;;;;;;;32.85;31.14;95257.53;5067515;28;20205;-62
2023/06/29 09:51:45;;;;;;;1999.90;999.90;;;;;;;33.37;30.81;95257.19;5067319;28;20197;-61
2023/06/29 09:54:13;;;;;;;1999.90;999.90;;;;;;;32.86;32.39;95259.06;5067166;28;20263;-62
2023/06/29 09:56:40;;;;;;;1999.90;999.90;;;;;;;32.44;32.91;95268.81;5067128;28;20194;-62
2023/06/29 09:59:10;;;;;;;1999.90;999.90;;;;;;;31.36;34.01;95260.09;5067423;28;20200;-62
2023/06/29 10:01:36;;;;;;;1999.90;999.90;;;;;;;31.07;33.95;95253.41;5066996;28;20221;-63
2023/06/29 10:04:04;;;;;;;1999.90;999.90;;;;;;;31.84;32.32;95245.50;5067363;28;20268;-62
2023/06/29 10:06:43;;;;;;;1999.90;999.90;;;;;;;32.17;32.60;95241.16;5067601;28;20204;-62
2023/06/29 10:09:12;;;;;;;1999.90;999.90;;;;;;;31.52;33.27;95247.69;5067482;28;20243;-61
2023/06/29 10:11:39;;;;;;;1999.90;999.90;;;;;;;31.21;34.55;95236.50;5067052;28;20198;-63
2023/06/29 10:14:07;;;;;;;1999.90;999.90;;;;;;;31.98;34.17;95230.03;5067329;28;20228;-65
2023/06/29 10:16:39;;;;;;;1999.90;999.90;;;;;;;32.70;33.16;95231.88;5066714;28;20239;-64
2023/06/29 10:19:18;;;;;;;1999.90;999.90;;;;;;;32.73;33.11;95233.63;5067337;28;20194;-66
2023/06/29 10:21:45;;;;;;;1999.90;999.90;;;;;;;31.93;33.39;95225.25;5067177;28;20217;-64
2023/06/29 10:24:14;;;;;;;1999.90;999.90;;;;;;;31.81;33.43;95223.97;5067085;28;20204;-67
2023/06/29 10:26:40;;;;;;;1999.90;999.90;;;;;;;31.62;34.69;95217.69;5066718;28;20198;-63
2023/06/29 10:29:07;;;;;;;1999.90;999.90;;;;;;;32.78;33.79;95212.16;5066589;28;20186;-65
2023/06/29 10:31:33;;;;;;;1999.90;999.90;;;;;;;33.57;31.73;95225.19;5066695;28;20197;-64
2023/06/29 10:33:59;;;;;;;1999.90;999.90;;;;;;;32.71;32.04;95219.28;5066862;28;20194;-65
2023/06/29 10:36:25;;;;;;;1999.90;999.90;;;;;;;33.38;32.14;95209.78;5066682;28;20235;-65
2023/06/29 10:38:51;;;;;;;1999.90;999.90;;;;;;;33.07;31.28;95205.22;5066613;28;20194;-64
2023/06/29 10:41:27;;;;;;;1999.90;999.90;;;;;;;33.15;30.40;95201.13;5066364;28;20214;-64
2023/06/29 10:44:01;;;;;;;1999.90;999.90;;;;;;;31.76;31.46;95215.59;5066728;28;20193;-65
2023/06/29 10:46:46;;;;;;;1999.90;999.90;;;;;;;31.20;33.92;95210.31;5066102;28;20200;-65